Killeen-Fort Hood Regional, TX

1:15 PM CDT on July 06, 2015 (GMT -0500)
Fort Hood | | Change Station
CLOSE
Current Station
Airport
Location: Fort Hood,
Elevation: 1014 ft
Nearby Weather Stations

Elev 1014 ft 31.07 °N, 97.83 °W | Updated 17 minutes ago

Clear
Clear
88 °F
Feels Like 91 °F
N
20
Wind Variable Wind from South

Today
High -- | Low -- °F
--% Chance of Precip.
Yesterday
High -- | Low -- °F
Precip. -- in
6:33 AM 8:38 PM
Waning Gibbous, 73% visible
Pressure 30.00 in
Visibility 10.0 miles
Clouds Few 31000 ft
Heat Index 91 °F
Dew Point 68 °F
Humidity 52%
Rainfall 0.00 in
Snow Depth Not available.
UV 12 out of 12
Pollen 4.80 out of 12
Air Quality Not available.
Flu Activity Not available.
METAR KGRK 061758Z AUTO 18017KT 10SM FEW310 31/20 A3003 RMK AO2 PK WND 19028/36 SLP157 T03100202 10311 20241 55006

More Conditions Fewer Conditions

Pressure 30.00 in
Visibility 10.0 miles
Clouds Few 31000 ft
Heat Index 91 °F
Dew Point 68 °F
Humidity 52%
Rainfall 0.00 in
Snow Depth Not available.
UV 12 out of 12
Pollen 4.80 out of 12
Air Quality Not available.
Flu Activity Not available.
METAR KGRK 061758Z AUTO 18017KT 10SM FEW310 31/20 A3003 RMK AO2 PK WND 19028/36 SLP157 T03100202 10311 20241 55006

More Conditions Fewer Conditions

10-Day Weather Forecast

×

Almanac

Astronomy

Jul. 06, 2015 Rise Set
Actual Time
Civil Twilight
Nautical Twilight
Astronomical Twilight
Moon
Length of Visible Light
Length of Day
Tomorrow will be .
, % of the Moon is Illuminated

Today's Extremes

State Highs State Lows

Community

WunderPhotos

Upload Photos

1,835,610 photos uploaded!

WunderBlogs® & News

Nearby

Air Quality

  Air Quality AQ Index Pollutant
Not available.

Snow Depth

Station Depth Elevation

Earthquake Activity

City Distance Mag. Time & Date
Minimum magnitude displayed is 2.5.

Coastal Water Temperatures

Place Temperature

Stations

Nearby Weather Stations

Station Location Temp. Windchill Dew Point Humidity Wind Precip. Elev Updated Type